sensor_id;sensor_type;location;lat;lon;timestamp;P1;durP1;ratioP1;P2;durP2;ratioP2
55559;SDS011;41414;53.250;6.514;2022-09-09T00:04:03;21.88;;;12.02;;
55559;SDS011;41414;53.250;6.514;2022-09-09T00:06:31;14.77;;;11.15;;
55559;SDS011;41414;53.250;6.514;2022-09-09T00:09:11;15.65;;;11.02;;
55559;SDS011;41414;53.250;6.514;2022-09-09T00:11:46;17.60;;;11.77;;
55559;SDS011;41414;53.250;6.514;2022-09-09T00:14:17;14.23;;;10.88;;
55559;SDS011;41414;53.250;6.514;2022-09-09T00:16:47;20.17;;;12.02;;
55559;SDS011;41414;53.250;6.514;2022-09-09T00:19:18;16.95;;;11.55;;
55559;SDS011;41414;53.250;6.514;2022-09-09T00:21:48;21.50;;;12.95;;
55559;SDS011;41414;53.250;6.514;2022-09-09T00:24:27;22.60;;;13.63;;
55559;SDS011;41414;53.250;6.514;2022-09-09T00:26:56;18.38;;;13.00;;
55559;SDS011;41414;53.250;6.514;2022-09-09T00:31:52;20.55;;;13.95;;
55559;SDS011;41414;53.250;6.514;2022-09-09T00:34:22;19.38;;;14.88;;
55559;SDS011;41414;53.250;6.514;2022-09-09T00:36:49;21.50;;;15.27;;
55559;SDS011;41414;53.250;6.514;2022-09-09T00:39:25;22.33;;;15.00;;
55559;SDS011;41414;53.250;6.514;2022-09-09T00:42:06;22.83;;;15.20;;
55559;SDS011;41414;53.250;6.514;2022-09-09T00:44:36;25.30;;;15.63;;
55559;SDS011;41414;53.250;6.514;2022-09-09T00:47:09;22.88;;;14.85;;
55559;SDS011;41414;53.250;6.514;2022-09-09T00:49:48;24.85;;;15.20;;
55559;SDS011;41414;53.250;6.514;2022-09-09T00:52:32;22.98;;;16.13;;
55559;SDS011;41414;53.250;6.514;2022-09-09T00:55:07;24.35;;;15.23;;
55559;SDS011;41414;53.250;6.514;2022-09-09T00:57:38;24.27;;;15.60;;
55559;SDS011;41414;53.250;6.514;2022-09-09T01:00:16;24.30;;;15.20;;
55559;SDS011;41414;53.250;6.514;2022-09-09T01:02:52;25.88;;;15.88;;
55559;SDS011;41414;53.250;6.514;2022-09-09T01:05:20;19.48;;;13.80;;
55559;SDS011;41414;53.250;6.514;2022-09-09T01:07:50;21.27;;;15.15;;
55559;SDS011;41414;53.250;6.514;2022-09-09T01:10:21;21.85;;;15.43;;
55559;SDS011;41414;53.250;6.514;2022-09-09T01:12:50;23.23;;;15.55;;
55559;SDS011;41414;53.250;6.514;2022-09-09T01:15:20;22.48;;;15.10;;
55559;SDS011;41414;53.250;6.514;2022-09-09T01:18:01;21.55;;;15.07;;
55559;SDS011;41414;53.250;6.514;2022-09-09T01:26:01;22.92;;;14.82;;
55559;SDS011;41414;53.250;6.514;2022-09-09T01:28:30;18.17;;;13.00;;
55559;SDS011;41414;53.250;6.514;2022-09-09T01:30:57;24.58;;;14.05;;
55559;SDS011;41414;53.250;6.514;2022-09-09T01:33:24;19.95;;;14.05;;
55559;SDS011;41414;53.250;6.514;2022-09-09T01:35:52;17.73;;;13.82;;
55559;SDS011;41414;53.250;6.514;2022-09-09T01:38:20;19.58;;;14.00;;
55559;SDS011;41414;53.250;6.514;2022-09-09T01:40:46;22.63;;;15.85;;
55559;SDS011;41414;53.250;6.514;2022-09-09T01:43:14;23.42;;;14.38;;
55559;SDS011;41414;53.250;6.514;2022-09-09T01:45:40;19.83;;;13.55;;
55559;SDS011;41414;53.250;6.514;2022-09-09T01:48:07;25.85;;;15.40;;
55559;SDS011;41414;53.250;6.514;2022-09-09T01:50:33;22.77;;;15.43;;
55559;SDS011;41414;53.250;6.514;2022-09-09T01:52:59;27.00;;;13.82;;
55559;SDS011;41414;53.250;6.514;2022-09-09T01:55:29;25.10;;;14.80;;
55559;SDS011;41414;53.250;6.514;2022-09-09T02:00:42;21.88;;;14.23;;
55559;SDS011;41414;53.250;6.514;2022-09-09T02:03:27;20.15;;;15.02;;
55559;SDS011;41414;53.250;6.514;2022-09-09T02:06:05;20.45;;;14.52;;
55559;SDS011;41414;53.250;6.514;2022-09-09T02:08:40;20.92;;;14.18;;
55559;SDS011;41414;53.250;6.514;2022-09-09T02:11:15;20.35;;;14.75;;
55559;SDS011;41414;53.250;6.514;2022-09-09T02:13:43;22.73;;;15.65;;
55559;SDS011;41414;53.250;6.514;2022-09-09T02:16:12;22.52;;;14.18;;
55559;SDS011;41414;53.250;6.514;2022-09-09T02:18:42;24.55;;;15.23;;
55559;SDS011;41414;53.250;6.514;2022-09-09T02:21:11;19.98;;;13.75;;
55559;SDS011;41414;53.250;6.514;2022-09-09T02:23:37;27.33;;;15.82;;
55559;SDS011;41414;53.250;6.514;2022-09-09T02:26:04;24.50;;;15.38;;
55559;SDS011;41414;53.250;6.514;2022-09-09T02:28:32;26.48;;;15.85;;
55559;SDS011;41414;53.250;6.514;2022-09-09T02:31:00;25.67;;;16.50;;
55559;SDS011;41414;53.250;6.514;2022-09-09T02:33:28;23.67;;;16.75;;
55559;SDS011;41414;53.250;6.514;2022-09-09T02:35:56;23.50;;;16.13;;
55559;SDS011;41414;53.250;6.514;2022-09-09T02:38:28;24.77;;;15.80;;
55559;SDS011;41414;53.250;6.514;2022-09-09T02:40:55;25.38;;;17.67;;
55559;SDS011;41414;53.250;6.514;2022-09-09T02:43:22;21.85;;;16.60;;
55559;SDS011;41414;53.250;6.514;2022-09-09T02:45:54;23.70;;;17.63;;
55559;SDS011;41414;53.250;6.514;2022-09-09T02:48:26;22.58;;;17.63;;
55559;SDS011;41414;53.250;6.514;2022-09-09T02:53:23;27.08;;;17.65;;
55559;SDS011;41414;53.250;6.514;2022-09-09T02:55:55;28.00;;;17.27;;
55559;SDS011;41414;53.250;6.514;2022-09-09T02:58:23;27.77;;;18.40;;
55559;SDS011;41414;53.250;6.514;2022-09-09T03:00:50;23.30;;;18.10;;
55559;SDS011;41414;53.250;6.514;2022-09-09T03:03:16;26.73;;;18.23;;
55559;SDS011;41414;53.250;6.514;2022-09-09T03:05:44;29.75;;;17.88;;
55559;SDS011;41414;53.250;6.514;2022-09-09T03:08:10;30.67;;;17.45;;
55559;SDS011;41414;53.250;6.514;2022-09-09T03:10:38;26.42;;;17.83;;
55559;SDS011;41414;53.250;6.514;2022-09-09T03:13:04;28.27;;;17.83;;
55559;SDS011;41414;53.250;6.514;2022-09-09T03:15:31;26.33;;;17.88;;
55559;SDS011;41414;53.250;6.514;2022-09-09T03:17:58;29.63;;;18.45;;
55559;SDS011;41414;53.250;6.514;2022-09-09T03:20:25;31.15;;;18.98;;
55559;SDS011;41414;53.250;6.514;2022-09-09T03:22:52;28.50;;;17.88;;
55559;SDS011;41414;53.250;6.514;2022-09-09T03:25:19;27.98;;;16.73;;
55559;SDS011;41414;53.250;6.514;2022-09-09T03:27:45;27.27;;;17.63;;
55559;SDS011;41414;53.250;6.514;2022-09-09T03:30:11;27.45;;;17.48;;
55559;SDS011;41414;53.250;6.514;2022-09-09T03:32:38;28.95;;;16.88;;
55559;SDS011;41414;53.250;6.514;2022-09-09T03:35:05;26.27;;;17.10;;
55559;SDS011;41414;53.250;6.514;2022-09-09T03:37:31;28.60;;;17.17;;
55559;SDS011;41414;53.250;6.514;2022-09-09T03:39:58;25.70;;;17.67;;
55559;SDS011;41414;53.250;6.514;2022-09-09T03:42:25;24.25;;;16.75;;
55559;SDS011;41414;53.250;6.514;2022-09-09T03:44:51;23.48;;;17.17;;
55559;SDS011;41414;53.250;6.514;2022-09-09T03:47:18;24.80;;;16.17;;
55559;SDS011;41414;53.250;6.514;2022-09-09T03:49:44;24.63;;;15.57;;
55559;SDS011;41414;53.250;6.514;2022-09-09T03:52:10;26.15;;;16.48;;
55559;SDS011;41414;53.250;6.514;2022-09-09T03:54:37;19.67;;;14.02;;
55559;SDS011;41414;53.250;6.514;2022-09-09T03:57:03;21.20;;;14.63;;
55559;SDS011;41414;53.250;6.514;2022-09-09T03:59:30;17.70;;;13.18;;
55559;SDS011;41414;53.250;6.514;2022-09-09T04:01:56;18.67;;;13.40;;
55559;SDS011;41414;53.250;6.514;2022-09-09T04:04:24;19.88;;;11.65;;
55559;SDS011;41414;53.250;6.514;2022-09-09T04:06:51;17.80;;;11.50;;
55559;SDS011;41414;53.250;6.514;2022-09-09T04:09:18;21.40;;;11.32;;
55559;SDS011;41414;53.250;6.514;2022-09-09T04:11:44;18.17;;;9.85;;
55559;SDS011;41414;53.250;6.514;2022-09-09T04:14:11;15.82;;;10.45;;
55559;SDS011;41414;53.250;6.514;2022-09-09T04:16:37;22.25;;;10.02;;
55559;SDS011;41414;53.250;6.514;2022-09-09T04:19:04;15.07;;;9.13;;
55559;SDS011;41414;53.250;6.514;2022-09-09T04:21:32;16.55;;;8.38;;
55559;SDS011;41414;53.250;6.514;2022-09-09T04:23:58;13.75;;;7.70;;
55559;SDS011;41414;53.250;6.514;2022-09-09T04:26:25;14.85;;;8.48;;
55559;SDS011;41414;53.250;6.514;2022-09-09T04:28:51;15.38;;;7.53;;
55559;SDS011;41414;53.250;6.514;2022-09-09T04:31:18;12.02;;;8.40;;
55559;SDS011;41414;53.250;6.514;2022-09-09T04:33:45;15.70;;;7.97;;
55559;SDS011;41414;53.250;6.514;2022-09-09T04:36:12;10.90;;;6.85;;
55559;SDS011;41414;53.250;6.514;2022-09-09T04:38:38;13.80;;;8.23;;
55559;SDS011;41414;53.250;6.514;2022-09-09T04:41:05;13.98;;;7.80;;
55559;SDS011;41414;53.250;6.514;2022-09-09T04:43:32;14.00;;;8.50;;
55559;SDS011;41414;53.250;6.514;2022-09-09T04:45:58;12.38;;;8.93;;
55559;SDS011;41414;53.250;6.514;2022-09-09T04:48:24;12.23;;;8.40;;
55559;SDS011;41414;53.250;6.514;2022-09-09T04:50:57;13.77;;;8.38;;
55559;SDS011;41414;53.250;6.514;2022-09-09T04:53:23;12.27;;;8.40;;
55559;SDS011;41414;53.250;6.514;2022-09-09T04:55:51;14.98;;;8.63;;
55559;SDS011;41414;53.250;6.514;2022-09-09T04:58:17;17.85;;;8.90;;
55559;SDS011;41414;53.250;6.514;2022-09-09T05:00:43;15.38;;;9.05;;
55559;SDS011;41414;53.250;6.514;2022-09-09T05:03:09;15.55;;;9.48;;
55559;SDS011;41414;53.250;6.514;2022-09-09T05:05:37;16.67;;;8.95;;
55559;SDS011;41414;53.250;6.514;2022-09-09T05:08:05;19.38;;;9.27;;
55559;SDS011;41414;53.250;6.514;2022-09-09T05:10:31;16.25;;;9.68;;
55559;SDS011;41414;53.250;6.514;2022-09-09T05:12:58;15.43;;;8.95;;
55559;SDS011;41414;53.250;6.514;2022-09-09T05:15:24;16.85;;;10.57;;
55559;SDS011;41414;53.250;6.514;2022-09-09T05:17:50;17.85;;;10.13;;
55559;SDS011;41414;53.250;6.514;2022-09-09T05:20:18;14.38;;;10.20;;
55559;SDS011;41414;53.250;6.514;2022-09-09T05:22:44;14.57;;;9.98;;
55559;SDS011;41414;53.250;6.514;2022-09-09T05:25:10;18.38;;;10.10;;
55559;SDS011;41414;53.250;6.514;2022-09-09T05:27:36;16.50;;;10.15;;
55559;SDS011;41414;53.250;6.514;2022-09-09T05:30:03;17.52;;;10.27;;
55559;SDS011;41414;53.250;6.514;2022-09-09T05:32:30;18.23;;;10.25;;
55559;SDS011;41414;53.250;6.514;2022-09-09T05:34:59;19.08;;;11.13;;
55559;SDS011;41414;53.250;6.514;2022-09-09T05:37:26;18.63;;;10.77;;
55559;SDS011;41414;53.250;6.514;2022-09-09T05:39:52;17.15;;;11.38;;
55559;SDS011;41414;53.250;6.514;2022-09-09T05:42:18;18.33;;;11.27;;
55559;SDS011;41414;53.250;6.514;2022-09-09T05:44:45;17.95;;;10.82;;
55559;SDS011;41414;53.250;6.514;2022-09-09T05:47:11;22.38;;;12.02;;
55559;SDS011;41414;53.250;6.514;2022-09-09T05:49:37;16.10;;;11.90;;
55559;SDS011;41414;53.250;6.514;2022-09-09T05:52:03;19.23;;;11.70;;
55559;SDS011;41414;53.250;6.514;2022-09-09T05:54:30;22.98;;;12.38;;
55559;SDS011;41414;53.250;6.514;2022-09-09T05:56:57;19.92;;;11.38;;
55559;SDS011;41414;53.250;6.514;2022-09-09T05:59:24;19.77;;;12.75;;
55559;SDS011;41414;53.250;6.514;2022-09-09T06:01:50;22.27;;;13.52;;
55559;SDS011;41414;53.250;6.514;2022-09-09T06:04:17;19.08;;;13.32;;
55559;SDS011;41414;53.250;6.514;2022-09-09T06:06:45;22.33;;;13.73;;
55559;SDS011;41414;53.250;6.514;2022-09-09T06:09:11;17.80;;;12.38;;
55559;SDS011;41414;53.250;6.514;2022-09-09T06:11:38;22.35;;;14.07;;
55559;SDS011;41414;53.250;6.514;2022-09-09T06:14:05;22.20;;;12.85;;
55559;SDS011;41414;53.250;6.514;2022-09-09T06:16:32;21.63;;;13.73;;
55559;SDS011;41414;53.250;6.514;2022-09-09T06:18:58;22.30;;;12.98;;
55559;SDS011;41414;53.250;6.514;2022-09-09T06:21:26;18.38;;;12.38;;
55559;SDS011;41414;53.250;6.514;2022-09-09T06:23:52;18.73;;;12.30;;
55559;SDS011;41414;53.250;6.514;2022-09-09T06:26:21;20.45;;;13.77;;
55559;SDS011;41414;53.250;6.514;2022-09-09T06:28:50;22.50;;;13.23;;
55559;SDS011;41414;53.250;6.514;2022-09-09T06:31:17;19.65;;;13.18;;
55559;SDS011;41414;53.250;6.514;2022-09-09T06:33:48;19.50;;;11.88;;
55559;SDS011;41414;53.250;6.514;2022-09-09T06:36:15;20.70;;;12.52;;
55559;SDS011;41414;53.250;6.514;2022-09-09T06:38:41;18.23;;;12.45;;
55559;SDS011;41414;53.250;6.514;2022-09-09T06:41:08;17.73;;;12.20;;
55559;SDS011;41414;53.250;6.514;2022-09-09T06:43:35;17.36;;;11.56;;
55559;SDS011;41414;53.250;6.514;2022-09-09T06:46:03;14.82;;;10.82;;
55559;SDS011;41414;53.250;6.514;2022-09-09T06:48:29;17.65;;;12.32;;
55559;SDS011;41414;53.250;6.514;2022-09-09T06:51:03;18.15;;;12.40;;
55559;SDS011;41414;53.250;6.514;2022-09-09T06:53:30;21.65;;;12.95;;
55559;SDS011;41414;53.250;6.514;2022-09-09T06:55:59;18.02;;;12.48;;
55559;SDS011;41414;53.250;6.514;2022-09-09T06:58:27;16.50;;;11.40;;
55559;SDS011;41414;53.250;6.514;2022-09-09T07:01:01;15.98;;;11.65;;
55559;SDS011;41414;53.250;6.514;2022-09-09T07:03:27;15.55;;;10.45;;
55559;SDS011;41414;53.250;6.514;2022-09-09T07:05:54;15.25;;;11.43;;
55559;SDS011;41414;53.250;6.514;2022-09-09T07:08:21;15.13;;;10.63;;
55559;SDS011;41414;53.250;6.514;2022-09-09T07:10:47;14.55;;;11.27;;
55559;SDS011;41414;53.250;6.514;2022-09-09T07:13:14;15.27;;;10.80;;
55559;SDS011;41414;53.250;6.514;2022-09-09T07:15:41;15.38;;;10.68;;
55559;SDS011;41414;53.250;6.514;2022-09-09T07:18:07;15.70;;;10.48;;
55559;SDS011;41414;53.250;6.514;2022-09-09T07:20:35;16.55;;;11.85;;
55559;SDS011;41414;53.250;6.514;2022-09-09T07:23:01;17.73;;;10.65;;
55559;SDS011;41414;53.250;6.514;2022-09-09T07:25:27;16.60;;;10.77;;
55559;SDS011;41414;53.250;6.514;2022-09-09T07:27:55;13.10;;;10.63;;
55559;SDS011;41414;53.250;6.514;2022-09-09T07:30:22;15.88;;;11.32;;
55559;SDS011;41414;53.250;6.514;2022-09-09T07:32:50;14.50;;;10.27;;
55559;SDS011;41414;53.250;6.514;2022-09-09T07:35:16;12.32;;;9.55;;
55559;SDS011;41414;53.250;6.514;2022-09-09T07:37:42;12.93;;;9.63;;
55559;SDS011;41414;53.250;6.514;2022-09-09T07:40:10;14.40;;;10.13;;
55559;SDS011;41414;53.250;6.514;2022-09-09T07:42:36;14.80;;;10.77;;
55559;SDS011;41414;53.250;6.514;2022-09-09T07:45:03;14.02;;;8.82;;
55559;SDS011;41414;53.250;6.514;2022-09-09T07:47:30;14.80;;;8.82;;
55559;SDS011;41414;53.250;6.514;2022-09-09T07:49:56;12.93;;;9.63;;
55559;SDS011;41414;53.250;6.514;2022-09-09T07:52:23;15.57;;;9.48;;
55559;SDS011;41414;53.250;6.514;2022-09-09T07:54:50;15.07;;;9.45;;
55559;SDS011;41414;53.250;6.514;2022-09-09T07:57:17;13.48;;;9.05;;
55559;SDS011;41414;53.250;6.514;2022-09-09T07:59:43;13.43;;;9.18;;
55559;SDS011;41414;53.250;6.514;2022-09-09T08:02:11;13.65;;;8.70;;
55559;SDS011;41414;53.250;6.514;2022-09-09T08:04:37;11.80;;;8.40;;
55559;SDS011;41414;53.250;6.514;2022-09-09T08:07:04;11.98;;;8.43;;
55559;SDS011;41414;53.250;6.514;2022-09-09T08:09:30;16.38;;;8.55;;
55559;SDS011;41414;53.250;6.514;2022-09-09T08:11:57;15.02;;;8.20;;
55559;SDS011;41414;53.250;6.514;2022-09-09T08:14:23;10.48;;;8.00;;
55559;SDS011;41414;53.250;6.514;2022-09-09T08:16:50;13.85;;;8.32;;
55559;SDS011;41414;53.250;6.514;2022-09-09T08:19:18;11.13;;;7.90;;
55559;SDS011;41414;53.250;6.514;2022-09-09T08:21:44;10.98;;;7.43;;
55559;SDS011;41414;53.250;6.514;2022-09-09T08:24:10;15.40;;;7.50;;
55559;SDS011;41414;53.250;6.514;2022-09-09T08:26:38;11.57;;;7.82;;
55559;SDS011;41414;53.250;6.514;2022-09-09T08:29:07;12.90;;;7.72;;
55559;SDS011;41414;53.250;6.514;2022-09-09T08:31:35;13.40;;;7.90;;
55559;SDS011;41414;53.250;6.514;2022-09-09T08:34:02;12.65;;;7.47;;
55559;SDS011;41414;53.250;6.514;2022-09-09T08:36:29;11.75;;;7.88;;
55559;SDS011;41414;53.250;6.514;2022-09-09T08:38:56;10.68;;;7.20;;
55559;SDS011;41414;53.250;6.514;2022-09-09T08:41:32;11.93;;;7.13;;
55559;SDS011;41414;53.250;6.514;2022-09-09T08:44:20;16.77;;;7.95;;
55559;SDS011;41414;53.250;6.514;2022-09-09T08:49:39;10.18;;;6.60;;
55559;SDS011;41414;53.250;6.514;2022-09-09T08:52:13;13.35;;;7.00;;
55559;SDS011;41414;53.250;6.514;2022-09-09T08:54:41;8.95;;;6.45;;
55559;SDS011;41414;53.250;6.514;2022-09-09T08:57:09;10.00;;;6.95;;
55559;SDS011;41414;53.250;6.514;2022-09-09T08:59:37;9.57;;;6.75;;
55559;SDS011;41414;53.250;6.514;2022-09-09T09:02:07;10.55;;;7.28;;
55559;SDS011;41414;53.250;6.514;2022-09-09T09:04:47;13.52;;;7.25;;
55559;SDS011;41414;53.250;6.514;2022-09-09T09:12:18;11.30;;;6.35;;
55559;SDS011;41414;53.250;6.514;2022-09-09T09:14:45;13.73;;;6.40;;
55559;SDS011;41414;53.250;6.514;2022-09-09T09:17:13;13.43;;;6.72;;
55559;SDS011;41414;53.250;6.514;2022-09-09T09:19:40;12.55;;;6.75;;
55559;SDS011;41414;53.250;6.514;2022-09-09T09:22:14;10.65;;;6.40;;
55559;SDS011;41414;53.250;6.514;2022-09-09T09:24:45;11.75;;;6.90;;
55559;SDS011;41414;53.250;6.514;2022-09-09T09:27:32;13.40;;;6.28;;
55559;SDS011;41414;53.250;6.514;2022-09-09T09:29:59;10.90;;;6.60;;
55559;SDS011;41414;53.250;6.514;2022-09-09T09:32:28;9.50;;;6.13;;
55559;SDS011;41414;53.250;6.514;2022-09-09T09:34:57;10.05;;;6.07;;
55559;SDS011;41414;53.250;6.514;2022-09-09T09:37:30;13.98;;;7.05;;
55559;SDS011;41414;53.250;6.514;2022-09-09T09:40:07;12.23;;;7.05;;
55559;SDS011;41414;53.250;6.514;2022-09-09T09:42:34;12.52;;;6.63;;
55559;SDS011;41414;53.250;6.514;2022-09-09T09:45:07;12.23;;;7.10;;
55559;SDS011;41414;53.250;6.514;2022-09-09T09:47:35;12.32;;;6.70;;
55559;SDS011;41414;53.250;6.514;2022-09-09T09:50:01;11.48;;;6.72;;
55559;SDS011;41414;53.250;6.514;2022-09-09T09:52:29;11.10;;;6.90;;
55559;SDS011;41414;53.250;6.514;2022-09-09T09:54:57;12.45;;;6.22;;
55559;SDS011;41414;53.250;6.514;2022-09-09T09:57:26;8.68;;;5.78;;
55559;SDS011;41414;53.250;6.514;2022-09-09T10:00:04;11.07;;;5.72;;
55559;SDS011;41414;53.250;6.514;2022-09-09T10:02:39;13.02;;;5.45;;
55559;SDS011;41414;53.250;6.514;2022-09-09T10:05:13;11.63;;;5.35;;
55559;SDS011;41414;53.250;6.514;2022-09-09T10:07:40;14.52;;;6.05;;
55559;SDS011;41414;53.250;6.514;2022-09-09T10:10:08;8.75;;;4.72;;
55559;SDS011;41414;53.250;6.514;2022-09-09T10:15:25;8.48;;;4.63;;
55559;SDS011;41414;53.250;6.514;2022-09-09T10:18:06;11.35;;;5.22;;
55559;SDS011;41414;53.250;6.514;2022-09-09T10:23:18;12.43;;;4.75;;
55559;SDS011;41414;53.250;6.514;2022-09-09T10:26:03;13.57;;;4.53;;
55559;SDS011;41414;53.250;6.514;2022-09-09T10:33:33;13.90;;;4.38;;
55559;SDS011;41414;53.250;6.514;2022-09-09T10:36:12;8.43;;;3.80;;
55559;SDS011;41414;53.250;6.514;2022-09-09T10:38:40;14.75;;;3.63;;
55559;SDS011;41414;53.250;6.514;2022-09-09T10:41:10;11.23;;;3.65;;
55559;SDS011;41414;53.250;6.514;2022-09-09T10:43:39;9.02;;;3.60;;
55559;SDS011;41414;53.250;6.514;2022-09-09T10:46:15;7.93;;;3.33;;
55559;SDS011;41414;53.250;6.514;2022-09-09T10:51:23;8.27;;;2.58;;
55559;SDS011;41414;53.250;6.514;2022-09-09T10:54:04;10.50;;;2.67;;
55559;SDS011;41414;53.250;6.514;2022-09-09T10:56:35;8.02;;;2.58;;
55559;SDS011;41414;53.250;6.514;2022-09-09T10:59:04;5.85;;;2.22;;
55559;SDS011;41414;53.250;6.514;2022-09-09T11:01:41;6.00;;;1.88;;
55559;SDS011;41414;53.250;6.514;2022-09-09T11:04:10;4.65;;;1.92;;
55559;SDS011;41414;53.250;6.514;2022-09-09T11:06:41;6.03;;;2.28;;
55559;SDS011;41414;53.250;6.514;2022-09-09T11:09:14;8.50;;;2.50;;
55559;SDS011;41414;53.250;6.514;2022-09-09T11:11:44;5.35;;;2.38;;
55559;SDS011;41414;53.250;6.514;2022-09-09T11:16:41;6.60;;;2.67;;
55559;SDS011;41414;53.250;6.514;2022-09-09T11:19:17;9.07;;;3.08;;
55559;SDS011;41414;53.250;6.514;2022-09-09T11:21:47;6.22;;;2.70;;
55559;SDS011;41414;53.250;6.514;2022-09-09T11:24:16;7.18;;;2.45;;
55559;SDS011;41414;53.250;6.514;2022-09-09T11:26:45;8.05;;;2.40;;
55559;SDS011;41414;53.250;6.514;2022-09-09T11:29:20;8.23;;;2.25;;
55559;SDS011;41414;53.250;6.514;2022-09-09T11:32:01;7.25;;;2.40;;
55559;SDS011;41414;53.250;6.514;2022-09-09T11:34:44;6.43;;;2.22;;
55559;SDS011;41414;53.250;6.514;2022-09-09T11:37:33;7.85;;;1.92;;
55559;SDS011;41414;53.250;6.514;2022-09-09T11:40:19;6.00;;;1.77;;
55559;SDS011;41414;53.250;6.514;2022-09-09T11:42:48;7.65;;;2.35;;
55559;SDS011;41414;53.250;6.514;2022-09-09T11:45:19;5.47;;;2.05;;
55559;SDS011;41414;53.250;6.514;2022-09-09T11:47:52;5.82;;;2.15;;
55559;SDS011;41414;53.250;6.514;2022-09-09T11:52:46;7.45;;;2.30;;
55559;SDS011;41414;53.250;6.514;2022-09-09T11:55:24;7.60;;;2.25;;
55559;SDS011;41414;53.250;6.514;2022-09-09T11:57:58;7.95;;;2.25;;
55559;SDS011;41414;53.250;6.514;2022-09-09T12:00:36;6.72;;;2.10;;
55559;SDS011;41414;53.250;6.514;2022-09-09T12:03:04;6.35;;;2.55;;
55559;SDS011;41414;53.250;6.514;2022-09-09T12:05:40;8.00;;;2.30;;
55559;SDS011;41414;53.250;6.514;2022-09-09T12:08:09;8.27;;;2.20;;
55559;SDS011;41414;53.250;6.514;2022-09-09T12:10:38;6.40;;;2.17;;
55559;SDS011;41414;53.250;6.514;2022-09-09T12:13:21;7.72;;;2.30;;
55559;SDS011;41414;53.250;6.514;2022-09-09T12:15:50;7.75;;;2.00;;
55559;SDS011;41414;53.250;6.514;2022-09-09T12:18:23;4.80;;;2.15;;
55559;SDS011;41414;53.250;6.514;2022-09-09T12:20:54;7.88;;;2.58;;
55559;SDS011;41414;53.250;6.514;2022-09-09T12:23:27;9.90;;;2.70;;
55559;SDS011;41414;53.250;6.514;2022-09-09T12:28:22;6.40;;;2.30;;
55559;SDS011;41414;53.250;6.514;2022-09-09T12:31:06;6.03;;;2.05;;
55559;SDS011;41414;53.250;6.514;2022-09-09T12:33:40;6.18;;;2.40;;
55559;SDS011;41414;53.250;6.514;2022-09-09T12:36:11;6.75;;;2.00;;
55559;SDS011;41414;53.250;6.514;2022-09-09T12:38:38;6.45;;;2.63;;
55559;SDS011;41414;53.250;6.514;2022-09-09T12:41:05;9.70;;;2.38;;
55559;SDS011;41414;53.250;6.514;2022-09-09T12:43:31;7.47;;;1.98;;
55559;SDS011;41414;53.250;6.514;2022-09-09T12:45:59;6.97;;;1.80;;
55559;SDS011;41414;53.250;6.514;2022-09-09T12:48:28;6.32;;;1.83;;
55559;SDS011;41414;53.250;6.514;2022-09-09T12:50:57;6.55;;;1.80;;
55559;SDS011;41414;53.250;6.514;2022-09-09T12:53:26;5.03;;;1.88;;
55559;SDS011;41414;53.250;6.514;2022-09-09T12:58:19;10.13;;;2.45;;
55559;SDS011;41414;53.250;6.514;2022-09-09T13:00:50;3.88;;;1.70;;
55559;SDS011;41414;53.250;6.514;2022-09-09T13:05:43;4.95;;;1.90;;
55559;SDS011;41414;53.250;6.514;2022-09-09T13:08:10;4.45;;;1.52;;
55559;SDS011;41414;53.250;6.514;2022-09-09T13:10:46;9.30;;;2.03;;
55559;SDS011;41414;53.250;6.514;2022-09-09T13:13:14;9.25;;;2.10;;
55559;SDS011;41414;53.250;6.514;2022-09-09T13:15:47;8.23;;;2.00;;
55559;SDS011;41414;53.250;6.514;2022-09-09T13:18:21;5.22;;;1.50;;
55559;SDS011;41414;53.250;6.514;2022-09-09T13:20:48;3.20;;;1.80;;
55559;SDS011;41414;53.250;6.514;2022-09-09T13:23:14;6.18;;;1.75;;
55559;SDS011;41414;53.250;6.514;2022-09-09T13:25:42;6.43;;;1.70;;
55559;SDS011;41414;53.250;6.514;2022-09-09T13:28:20;5.88;;;1.83;;
55559;SDS011;41414;53.250;6.514;2022-09-09T13:30:54;8.20;;;2.33;;
55559;SDS011;41414;53.250;6.514;2022-09-09T13:33:28;4.68;;;2.03;;
55559;SDS011;41414;53.250;6.514;2022-09-09T13:35:58;4.63;;;2.22;;
55559;SDS011;41414;53.250;6.514;2022-09-09T13:38:26;8.18;;;2.00;;
55559;SDS011;41414;53.250;6.514;2022-09-09T13:40:59;5.47;;;1.95;;
55559;SDS011;41414;53.250;6.514;2022-09-09T13:43:28;6.45;;;2.10;;
55559;SDS011;41414;53.250;6.514;2022-09-09T13:45:57;5.65;;;1.95;;
55559;SDS011;41414;53.250;6.514;2022-09-09T13:48:23;7.68;;;2.08;;
55559;SDS011;41414;53.250;6.514;2022-09-09T13:51:03;5.78;;;2.00;;
55559;SDS011;41414;53.250;6.514;2022-09-09T13:53:30;9.00;;;2.42;;
55559;SDS011;41414;53.250;6.514;2022-09-09T13:55:57;4.40;;;2.15;;
55559;SDS011;41414;53.250;6.514;2022-09-09T13:58:24;7.20;;;2.30;;
55559;SDS011;41414;53.250;6.514;2022-09-09T14:00:51;10.57;;;2.33;;
55559;SDS011;41414;53.250;6.514;2022-09-09T14:03:18;12.45;;;2.80;;
55559;SDS011;41414;53.250;6.514;2022-09-09T14:05:45;8.32;;;1.92;;
55559;SDS011;41414;53.250;6.514;2022-09-09T14:08:16;5.20;;;2.70;;
55559;SDS011;41414;53.250;6.514;2022-09-09T14:10:46;6.35;;;2.33;;
55559;SDS011;41414;53.250;6.514;2022-09-09T14:13:12;7.88;;;2.72;;
55559;SDS011;41414;53.250;6.514;2022-09-09T14:15:40;5.15;;;2.10;;
55559;SDS011;41414;53.250;6.514;2022-09-09T14:18:08;8.77;;;2.15;;
55559;SDS011;41414;53.250;6.514;2022-09-09T14:20:35;4.65;;;1.83;;
55559;SDS011;41414;53.250;6.514;2022-09-09T14:23:01;7.05;;;1.73;;
55559;SDS011;41414;53.250;6.514;2022-09-09T14:25:27;5.63;;;1.40;;
55559;SDS011;41414;53.250;6.514;2022-09-09T14:27:53;6.40;;;1.67;;
55559;SDS011;41414;53.250;6.514;2022-09-09T14:30:21;5.95;;;1.83;;
55559;SDS011;41414;53.250;6.514;2022-09-09T14:32:47;7.82;;;1.50;;
55559;SDS011;41414;53.250;6.514;2022-09-09T14:35:13;5.05;;;1.50;;
55559;SDS011;41414;53.250;6.514;2022-09-09T14:37:39;6.45;;;2.33;;
55559;SDS011;41414;53.250;6.514;2022-09-09T14:40:06;6.38;;;1.77;;
55559;SDS011;41414;53.250;6.514;2022-09-09T14:42:32;2.95;;;1.65;;
55559;SDS011;41414;53.250;6.514;2022-09-09T14:44:58;6.18;;;1.95;;
55559;SDS011;41414;53.250;6.514;2022-09-09T14:47:24;9.18;;;2.15;;
55559;SDS011;41414;53.250;6.514;2022-09-09T14:49:51;7.72;;;2.30;;
55559;SDS011;41414;53.250;6.514;2022-09-09T14:52:18;5.03;;;2.00;;
55559;SDS011;41414;53.250;6.514;2022-09-09T14:54:45;7.20;;;2.70;;
55559;SDS011;41414;53.250;6.514;2022-09-09T14:57:12;5.75;;;1.73;;
55559;SDS011;41414;53.250;6.514;2022-09-09T14:59:38;5.50;;;1.40;;
55559;SDS011;41414;53.250;6.514;2022-09-09T15:02:04;1.95;;;1.10;;
55559;SDS011;41414;53.250;6.514;2022-09-09T15:04:31;2.15;;;1.30;;
55559;SDS011;41414;53.250;6.514;2022-09-09T15:06:57;4.72;;;1.08;;
55559;SDS011;41414;53.250;6.514;2022-09-09T15:09:23;2.25;;;1.00;;
55559;SDS011;41414;53.250;6.514;2022-09-09T15:11:50;1.85;;;1.05;;
55559;SDS011;41414;53.250;6.514;2022-09-09T15:14:16;1.52;;;0.88;;
55559;SDS011;41414;53.250;6.514;2022-09-09T15:16:42;2.63;;;1.17;;
55559;SDS011;41414;53.250;6.514;2022-09-09T15:19:08;3.17;;;1.00;;
55559;SDS011;41414;53.250;6.514;2022-09-09T15:21:35;2.03;;;1.00;;
55559;SDS011;41414;53.250;6.514;2022-09-09T15:24:03;4.05;;;1.50;;
55559;SDS011;41414;53.250;6.514;2022-09-09T15:26:29;2.65;;;0.98;;
55559;SDS011;41414;53.250;6.514;2022-09-09T15:28:56;4.28;;;1.13;;
55559;SDS011;41414;53.250;6.514;2022-09-09T15:31:27;4.55;;;1.35;;
55559;SDS011;41414;53.250;6.514;2022-09-09T15:33:55;3.90;;;1.15;;